Aviation Digital Data Service (ADDS)

Output produced by METARs form (0516 UTC 25 May 2018)
found at http://www.aviationweather.gov/adds/metars/
 
GOGS 250300Z 34004KT CAVOK 21/19 Q1011
TAF GOGS 242330Z 2500/2524 30008KT CAVOK
       
GOBD 250500Z 33005KT 8000 NSC 19/17 Q1011 NOSIG
TAF GOBD 242330Z 2500/2606 34015KT 8000 NSC
       
GOGG 250300Z VRB02KT 8000 NSC 21/19 Q1011
GOGK 250000Z 18010KT 8000 NSC 29/21 Q1011
GOGS 250300Z 34004KT CAVOK 21/19 Q1011
TAF GOGS 242330Z 2500/2524 30008KT CAVOK
       
GOOD 250300Z 00000KT 8000 NSC 22/18 Q1011
GOOG 250300Z 36004KT 8000 NSC 26/16 Q////
GOOK 250300Z 36008KT 7000 NSC 24/19 Q1012
GOOY 250300Z 36010KT 8000 NSC 21/19 Q1012
TAF GOOY 242330Z 2500/2606 35012KT CAVOK
       
GOSM 250300Z 28002KT CAVOK CAVOK 34/09 Q1008
GOSP 250300Z 32004KT CAVOK 26/13 Q1009
GOSS 250300Z 36006KT CAVOK 19/18 Q1010
TAF GOSS 242330Z 2500/2524 35008KT 8000 NSC
       
GOTK 250300Z 28004KT CAVOK 31/18 Q1009
GOTT 250300Z 22008KT CAVOK 32/13 Q1009
GOOK 250300Z 36008KT 7000 NSC 24/19 Q1012
GOTK 250300Z 28004KT CAVOK 31/18 Q1009
GOOY 250300Z 36010KT 8000 NSC 21/19 Q1012
TAF GOOY 242330Z 2500/2606 35012KT CAVOK
       
GOSS 250300Z 36006KT CAVOK 19/18 Q1010
TAF GOSS 242330Z 2500/2524 35008KT 8000 NSC
       
GOTT 250300Z 22008KT CAVOK 32/13 Q1009
GOGG 250300Z VRB02KT 8000 NSC 21/19 Q1011